sensor_id;sensor_type;location;lat;lon;timestamp;temperature;humidity
2855;DHT22;1435;49.472;10.940;2023-06-22T00:03:27;20.90;99.90
2855;DHT22;1435;49.472;10.940;2023-06-22T00:08:29;20.80;99.90
2855;DHT22;1435;49.472;10.940;2023-06-22T00:13:32;20.80;99.90
2855;DHT22;1435;49.472;10.940;2023-06-22T00:18:33;20.70;99.90
2855;DHT22;1435;49.472;10.940;2023-06-22T00:23:35;20.70;99.90
2855;DHT22;1435;49.472;10.940;2023-06-22T00:28:38;20.70;99.90
2855;DHT22;1435;49.472;10.940;2023-06-22T00:33:40;20.60;99.90
2855;DHT22;1435;49.472;10.940;2023-06-22T00:38:41;20.60;99.90
2855;DHT22;1435;49.472;10.940;2023-06-22T00:43:45;20.60;99.90
2855;DHT22;1435;49.472;10.940;2023-06-22T00:48:46;20.60;99.90
2855;DHT22;1435;49.472;10.940;2023-06-22T00:53:48;20.60;99.90
2855;DHT22;1435;49.472;10.940;2023-06-22T00:58:53;20.50;99.90
2855;DHT22;1435;49.472;10.940;2023-06-22T01:03:55;20.50;99.90
2855;DHT22;1435;49.472;10.940;2023-06-22T01:09:05;20.50;99.90
2855;DHT22;1435;49.472;10.940;2023-06-22T01:14:15;20.40;99.90
2855;DHT22;1435;49.472;10.940;2023-06-22T01:19:35;20.40;99.90
2855;DHT22;1435;49.472;10.940;2023-06-22T01:24:47;20.30;99.90
2855;DHT22;1435;49.472;10.940;2023-06-22T01:29:56;20.30;99.90
2855;DHT22;1435;49.472;10.940;2023-06-22T01:35:03;20.20;99.90
2855;DHT22;1435;49.472;10.940;2023-06-22T01:40:07;20.20;99.90
2855;DHT22;1435;49.472;10.940;2023-06-22T01:45:11;20.10;99.90
2855;DHT22;1435;49.472;10.940;2023-06-22T01:50:13;20.00;99.90
2855;DHT22;1435;49.472;10.940;2023-06-22T01:55:15;19.90;99.90
2855;DHT22;1435;49.472;10.940;2023-06-22T02:00:21;19.90;99.90
2855;DHT22;1435;49.472;10.940;2023-06-22T02:05:26;19.90;99.90
2855;DHT22;1435;49.472;10.940;2023-06-22T02:10:31;19.90;99.90
2855;DHT22;1435;49.472;10.940;2023-06-22T02:15:35;19.90;99.90
2855;DHT22;1435;49.472;10.940;2023-06-22T02:20:38;19.80;99.90
2855;DHT22;1435;49.472;10.940;2023-06-22T02:25:40;19.80;99.90
2855;DHT22;1435;49.472;10.940;2023-06-22T02:30:46;19.80;99.90
2855;DHT22;1435;49.472;10.940;2023-06-22T02:35:47;19.70;99.90
2855;DHT22;1435;49.472;10.940;2023-06-22T02:40:49;19.70;99.90
2855;DHT22;1435;49.472;10.940;2023-06-22T02:45:53;19.70;99.90
2855;DHT22;1435;49.472;10.940;2023-06-22T02:50:55;19.80;99.90
2855;DHT22;1435;49.472;10.940;2023-06-22T02:55:56;19.80;99.90
2855;DHT22;1435;49.472;10.940;2023-06-22T03:00:59;19.70;99.90
2855;DHT22;1435;49.472;10.940;2023-06-22T03:06:05;19.70;99.90
2855;DHT22;1435;49.472;10.940;2023-06-22T03:11:06;19.70;99.90
2855;DHT22;1435;49.472;10.940;2023-06-22T03:16:10;19.90;99.90
2855;DHT22;1435;49.472;10.940;2023-06-22T03:21:11;19.90;99.90
2855;DHT22;1435;49.472;10.940;2023-06-22T03:26:17;19.90;99.90
2855;DHT22;1435;49.472;10.940;2023-06-22T03:31:20;19.90;99.90
2855;DHT22;1435;49.472;10.940;2023-06-22T03:36:22;19.90;99.90
2855;DHT22;1435;49.472;10.940;2023-06-22T03:41:24;19.90;99.90
2855;DHT22;1435;49.472;10.940;2023-06-22T03:46:27;19.90;99.90
2855;DHT22;1435;49.472;10.940;2023-06-22T03:51:30;19.90;99.90
2855;DHT22;1435;49.472;10.940;2023-06-22T03:56:32;19.80;99.90
2855;DHT22;1435;49.472;10.940;2023-06-22T04:01:35;19.80;99.90
2855;DHT22;1435;49.472;10.940;2023-06-22T04:06:37;19.80;99.90
2855;DHT22;1435;49.472;10.940;2023-06-22T04:11:38;19.80;99.90
2855;DHT22;1435;49.472;10.940;2023-06-22T04:16:41;19.80;99.90
2855;DHT22;1435;49.472;10.940;2023-06-22T04:21:43;19.80;99.90
2855;DHT22;1435;49.472;10.940;2023-06-22T04:26:45;19.90;99.90
2855;DHT22;1435;49.472;10.940;2023-06-22T04:31:49;19.90;99.90
2855;DHT22;1435;49.472;10.940;2023-06-22T04:36:51;19.80;99.90
2855;DHT22;1435;49.472;10.940;2023-06-22T04:41:53;19.80;99.90
2855;DHT22;1435;49.472;10.940;2023-06-22T04:47:02;19.90;99.90
2855;DHT22;1435;49.472;10.940;2023-06-22T04:52:10;20.00;99.90
2855;DHT22;1435;49.472;10.940;2023-06-22T04:57:12;20.00;99.90
2855;DHT22;1435;49.472;10.940;2023-06-22T05:02:15;20.10;99.90
2855;DHT22;1435;49.472;10.940;2023-06-22T05:07:17;20.10;99.90
2855;DHT22;1435;49.472;10.940;2023-06-22T05:12:19;20.20;99.90
2855;DHT22;1435;49.472;10.940;2023-06-22T05:17:22;20.20;99.90
2855;DHT22;1435;49.472;10.940;2023-06-22T05:22:23;20.20;99.90
2855;DHT22;1435;49.472;10.940;2023-06-22T05:27:25;20.20;99.90
2855;DHT22;1435;49.472;10.940;2023-06-22T05:32:28;20.30;99.90
2855;DHT22;1435;49.472;10.940;2023-06-22T05:37:30;20.30;99.90
2855;DHT22;1435;49.472;10.940;2023-06-22T05:42:32;20.40;99.90
2855;DHT22;1435;49.472;10.940;2023-06-22T05:47:35;20.50;99.90
2855;DHT22;1435;49.472;10.940;2023-06-22T05:52:36;20.60;99.90
2855;DHT22;1435;49.472;10.940;2023-06-22T05:57:38;20.60;99.90
2855;DHT22;1435;49.472;10.940;2023-06-22T06:02:42;20.80;99.90
2855;DHT22;1435;49.472;10.940;2023-06-22T06:07:45;20.90;99.90
2855;DHT22;1435;49.472;10.940;2023-06-22T06:12:47;20.90;99.90
2855;DHT22;1435;49.472;10.940;2023-06-22T06:17:51;21.00;99.90
2855;DHT22;1435;49.472;10.940;2023-06-22T06:22:53;21.20;99.90
2855;DHT22;1435;49.472;10.940;2023-06-22T06:27:55;21.30;99.90
2855;DHT22;1435;49.472;10.940;2023-06-22T06:32:58;21.40;99.90
2855;DHT22;1435;49.472;10.940;2023-06-22T06:37:59;21.50;99.90
2855;DHT22;1435;49.472;10.940;2023-06-22T06:43:02;21.60;99.90
2855;DHT22;1435;49.472;10.940;2023-06-22T06:48:06;21.70;99.90
2855;DHT22;1435;49.472;10.940;2023-06-22T06:53:07;21.90;99.90
2855;DHT22;1435;49.472;10.940;2023-06-22T06:58:09;22.00;99.90
2855;DHT22;1435;49.472;10.940;2023-06-22T07:03:14;22.10;99.90
2855;DHT22;1435;49.472;10.940;2023-06-22T07:08:16;22.20;99.90
2855;DHT22;1435;49.472;10.940;2023-06-22T07:13:18;22.40;99.90
2855;DHT22;1435;49.472;10.940;2023-06-22T07:18:21;22.50;99.90
2855;DHT22;1435;49.472;10.940;2023-06-22T07:23:23;22.60;99.90
2855;DHT22;1435;49.472;10.940;2023-06-22T07:28:24;22.80;99.90
2855;DHT22;1435;49.472;10.940;2023-06-22T07:33:28;22.90;99.90
2855;DHT22;1435;49.472;10.940;2023-06-22T07:38:30;23.10;99.90
2855;DHT22;1435;49.472;10.940;2023-06-22T07:43:31;23.20;99.90
2855;DHT22;1435;49.472;10.940;2023-06-22T07:48:38;23.30;99.90
2855;DHT22;1435;49.472;10.940;2023-06-22T07:53:41;23.40;99.90
2855;DHT22;1435;49.472;10.940;2023-06-22T07:58:43;23.60;99.90
2855;DHT22;1435;49.472;10.940;2023-06-22T08:03:47;23.70;99.90
2855;DHT22;1435;49.472;10.940;2023-06-22T08:08:49;23.90;99.90
2855;DHT22;1435;49.472;10.940;2023-06-22T08:13:53;24.10;99.90
2855;DHT22;1435;49.472;10.940;2023-06-22T08:18:57;24.20;99.90
2855;DHT22;1435;49.472;10.940;2023-06-22T08:23:59;24.30;99.90
2855;DHT22;1435;49.472;10.940;2023-06-22T08:29:00;24.40;99.90
2855;DHT22;1435;49.472;10.940;2023-06-22T08:34:04;24.60;99.90
2855;DHT22;1435;49.472;10.940;2023-06-22T08:39:05;24.70;99.90
2855;DHT22;1435;49.472;10.940;2023-06-22T08:44:07;24.90;99.90
2855;DHT22;1435;49.472;10.940;2023-06-22T08:49:10;25.00;99.90
2855;DHT22;1435;49.472;10.940;2023-06-22T08:54:12;25.10;99.90
2855;DHT22;1435;49.472;10.940;2023-06-22T08:59:14;25.20;99.90
2855;DHT22;1435;49.472;10.940;2023-06-22T09:04:18;25.40;99.90
2855;DHT22;1435;49.472;10.940;2023-06-22T09:09:22;25.50;99.90
2855;DHT22;1435;49.472;10.940;2023-06-22T09:14:24;25.70;99.90
2855;DHT22;1435;49.472;10.940;2023-06-22T09:19:27;25.70;99.90
2855;DHT22;1435;49.472;10.940;2023-06-22T09:24:28;25.90;99.90
2855;DHT22;1435;49.472;10.940;2023-06-22T09:29:30;26.10;99.90
2855;DHT22;1435;49.472;10.940;2023-06-22T09:34:35;26.20;99.90
2855;DHT22;1435;49.472;10.940;2023-06-22T09:39:37;26.20;99.90
2855;DHT22;1435;49.472;10.940;2023-06-22T09:44:39;26.40;99.90
2855;DHT22;1435;49.472;10.940;2023-06-22T09:49:42;26.50;99.90
2855;DHT22;1435;49.472;10.940;2023-06-22T09:54:43;26.60;99.90
2855;DHT22;1435;49.472;10.940;2023-06-22T09:59:45;26.80;99.90
2855;DHT22;1435;49.472;10.940;2023-06-22T10:04:48;26.90;99.90
2855;DHT22;1435;49.472;10.940;2023-06-22T10:09:50;27.10;99.90
2855;DHT22;1435;49.472;10.940;2023-06-22T10:14:52;27.20;99.90
2855;DHT22;1435;49.472;10.940;2023-06-22T10:19:55;27.40;99.90
2855;DHT22;1435;49.472;10.940;2023-06-22T10:24:56;27.50;99.90
2855;DHT22;1435;49.472;10.940;2023-06-22T10:29:58;27.60;99.90
2855;DHT22;1435;49.472;10.940;2023-06-22T10:35:01;27.70;99.90
2855;DHT22;1435;49.472;10.940;2023-06-22T10:40:04;27.70;99.90
2855;DHT22;1435;49.472;10.940;2023-06-22T10:45:08;27.80;99.90
2855;DHT22;1435;49.472;10.940;2023-06-22T10:50:13;27.90;99.90
2855;DHT22;1435;49.472;10.940;2023-06-22T10:55:14;27.90;99.90
2855;DHT22;1435;49.472;10.940;2023-06-22T11:00:16;28.00;99.90
2855;DHT22;1435;49.472;10.940;2023-06-22T11:05:19;28.10;99.90
2855;DHT22;1435;49.472;10.940;2023-06-22T11:10:21;28.20;99.90
2855;DHT22;1435;49.472;10.940;2023-06-22T11:15:23;28.50;99.90
2855;DHT22;1435;49.472;10.940;2023-06-22T11:20:26;28.60;99.90
2855;DHT22;1435;49.472;10.940;2023-06-22T11:25:28;28.70;99.90
2855;DHT22;1435;49.472;10.940;2023-06-22T11:30:30;28.80;99.90
2855;DHT22;1435;49.472;10.940;2023-06-22T11:35:33;28.90;99.90
2855;DHT22;1435;49.472;10.940;2023-06-22T11:40:35;29.00;99.90
2855;DHT22;1435;49.472;10.940;2023-06-22T11:45:37;29.10;99.90
2855;DHT22;1435;49.472;10.940;2023-06-22T11:50:40;29.30;99.90
2855;DHT22;1435;49.472;10.940;2023-06-22T11:55:41;29.30;99.90
2855;DHT22;1435;49.472;10.940;2023-06-22T12:00:43;29.40;99.90
2855;DHT22;1435;49.472;10.940;2023-06-22T12:05:47;29.50;99.90
2855;DHT22;1435;49.472;10.940;2023-06-22T12:10:49;29.70;99.90
2855;DHT22;1435;49.472;10.940;2023-06-22T12:15:52;29.80;99.90
2855;DHT22;1435;49.472;10.940;2023-06-22T12:20:55;29.90;99.90
2855;DHT22;1435;49.472;10.940;2023-06-22T12:25:57;30.10;99.90
2855;DHT22;1435;49.472;10.940;2023-06-22T12:31:00;30.10;99.90
2855;DHT22;1435;49.472;10.940;2023-06-22T12:36:03;30.10;99.90
2855;DHT22;1435;49.472;10.940;2023-06-22T12:41:05;30.20;99.90
2855;DHT22;1435;49.472;10.940;2023-06-22T12:46:07;30.20;99.90
2855;DHT22;1435;49.472;10.940;2023-06-22T12:51:10;30.20;99.90
2855;DHT22;1435;49.472;10.940;2023-06-22T12:56:12;30.30;99.00
2855;DHT22;1435;49.472;10.940;2023-06-22T13:01:14;30.30;99.90
2855;DHT22;1435;49.472;10.940;2023-06-22T13:06:17;30.50;99.90
2855;DHT22;1435;49.472;10.940;2023-06-22T13:11:18;30.60;99.80
2855;DHT22;1435;49.472;10.940;2023-06-22T13:16:20;30.60;99.80
2855;DHT22;1435;49.472;10.940;2023-06-22T13:21:23;30.70;97.80
2855;DHT22;1435;49.472;10.940;2023-06-22T13:26:25;30.80;98.30
2855;DHT22;1435;49.472;10.940;2023-06-22T13:31:29;30.90;97.20
2855;DHT22;1435;49.472;10.940;2023-06-22T13:36:32;30.90;98.40
2855;DHT22;1435;49.472;10.940;2023-06-22T13:41:33;31.00;98.80
2855;DHT22;1435;49.472;10.940;2023-06-22T13:46:35;31.00;96.30
2855;DHT22;1435;49.472;10.940;2023-06-22T13:51:38;31.00;95.10
2855;DHT22;1435;49.472;10.940;2023-06-22T13:56:40;31.00;96.40
2855;DHT22;1435;49.472;10.940;2023-06-22T14:01:42;31.00;95.00
2855;DHT22;1435;49.472;10.940;2023-06-22T14:06:45;31.00;95.30
2855;DHT22;1435;49.472;10.940;2023-06-22T14:11:46;31.00;95.20
2855;DHT22;1435;49.472;10.940;2023-06-22T14:16:48;31.20;96.60
2855;DHT22;1435;49.472;10.940;2023-06-22T14:21:51;31.20;96.10
2855;DHT22;1435;49.472;10.940;2023-06-22T14:26:54;31.30;95.30
2855;DHT22;1435;49.472;10.940;2023-06-22T14:31:56;31.30;96.00
2855;DHT22;1435;49.472;10.940;2023-06-22T14:36:59;31.20;93.80
2855;DHT22;1435;49.472;10.940;2023-06-22T14:42:00;31.30;95.10
2855;DHT22;1435;49.472;10.940;2023-06-22T14:47:04;31.40;94.40
2855;DHT22;1435;49.472;10.940;2023-06-22T14:52:07;31.40;92.90
2855;DHT22;1435;49.472;10.940;2023-06-22T14:57:09;31.40;92.90
2855;DHT22;1435;49.472;10.940;2023-06-22T15:02:11;31.50;93.90
2855;DHT22;1435;49.472;10.940;2023-06-22T15:07:14;31.60;91.20
2855;DHT22;1435;49.472;10.940;2023-06-22T15:12:16;31.70;90.80
2855;DHT22;1435;49.472;10.940;2023-06-22T15:17:18;31.90;91.80
2855;DHT22;1435;49.472;10.940;2023-06-22T15:22:21;32.00;91.20
2855;DHT22;1435;49.472;10.940;2023-06-22T15:27:23;32.20;89.90
2855;DHT22;1435;49.472;10.940;2023-06-22T15:32:25;32.30;91.00
2855;DHT22;1435;49.472;10.940;2023-06-22T15:37:30;32.30;90.20
2855;DHT22;1435;49.472;10.940;2023-06-22T15:42:32;32.40;91.30
2855;DHT22;1435;49.472;10.940;2023-06-22T15:47:34;32.40;90.50
2855;DHT22;1435;49.472;10.940;2023-06-22T15:52:39;32.60;90.50
2855;DHT22;1435;49.472;10.940;2023-06-22T15:57:41;32.60;89.70
2855;DHT22;1435;49.472;10.940;2023-06-22T16:02:47;32.60;86.70
2855;DHT22;1435;49.472;10.940;2023-06-22T16:07:50;32.80;87.60
2855;DHT22;1435;49.472;10.940;2023-06-22T16:12:52;32.80;85.00
2855;DHT22;1435;49.472;10.940;2023-06-22T16:17:54;32.90;87.10
2855;DHT22;1435;49.472;10.940;2023-06-22T16:22:57;32.90;83.60
2855;DHT22;1435;49.472;10.940;2023-06-22T16:27:59;32.90;84.40
2855;DHT22;1435;49.472;10.940;2023-06-22T16:33:02;32.90;85.70
2855;DHT22;1435;49.472;10.940;2023-06-22T16:38:05;32.80;82.10
2855;DHT22;1435;49.472;10.940;2023-06-22T16:43:07;32.80;83.20
2855;DHT22;1435;49.472;10.940;2023-06-22T16:48:09;32.80;80.70
2855;DHT22;1435;49.472;10.940;2023-06-22T16:53:12;32.70;79.80
2855;DHT22;1435;49.472;10.940;2023-06-22T16:58:13;32.70;80.90
2855;DHT22;1435;49.472;10.940;2023-06-22T17:03:22;32.60;79.80
2855;DHT22;1435;49.472;10.940;2023-06-22T17:08:29;32.70;77.90
2855;DHT22;1435;49.472;10.940;2023-06-22T17:13:34;32.70;84.20
2855;DHT22;1435;49.472;10.940;2023-06-22T17:18:36;32.70;86.40
2855;DHT22;1435;49.472;10.940;2023-06-22T17:23:41;32.60;87.30
2855;DHT22;1435;49.472;10.940;2023-06-22T17:28:47;32.50;89.80
2855;DHT22;1435;49.472;10.940;2023-06-22T17:33:49;32.20;90.00
2855;DHT22;1435;49.472;10.940;2023-06-22T17:38:58;32.00;90.70
2855;DHT22;1435;49.472;10.940;2023-06-22T17:44:00;31.80;91.60
2855;DHT22;1435;49.472;10.940;2023-06-22T17:49:07;31.50;91.80
2855;DHT22;1435;49.472;10.940;2023-06-22T17:54:11;31.30;92.30
2855;DHT22;1435;49.472;10.940;2023-06-22T17:59:12;31.10;92.50
2855;DHT22;1435;49.472;10.940;2023-06-22T18:04:15;31.00;92.90
2855;DHT22;1435;49.472;10.940;2023-06-22T18:09:18;30.90;93.30
2855;DHT22;1435;49.472;10.940;2023-06-22T18:14:20;30.70;93.50
2855;DHT22;1435;49.472;10.940;2023-06-22T18:19:22;30.60;94.10
2855;DHT22;1435;49.472;10.940;2023-06-22T18:24:27;30.50;93.80
2855;DHT22;1435;49.472;10.940;2023-06-22T18:29:29;30.30;92.20
2855;DHT22;1435;49.472;10.940;2023-06-22T18:34:31;30.10;91.50
2855;DHT22;1435;49.472;10.940;2023-06-22T18:39:36;30.00;91.10
2855;DHT22;1435;49.472;10.940;2023-06-22T18:44:40;29.90;91.70
2855;DHT22;1435;49.472;10.940;2023-06-22T18:49:46;29.90;91.80
2855;DHT22;1435;49.472;10.940;2023-06-22T18:54:50;29.80;91.30
2855;DHT22;1435;49.472;10.940;2023-06-22T18:59:58;29.80;92.00
2855;DHT22;1435;49.472;10.940;2023-06-22T19:05:08;29.70;91.20
2855;DHT22;1435;49.472;10.940;2023-06-22T19:10:24;29.50;88.40
2855;DHT22;1435;49.472;10.940;2023-06-22T19:15:30;29.50;89.40
2855;DHT22;1435;49.472;10.940;2023-06-22T19:20:34;29.40;89.60
2855;DHT22;1435;49.472;10.940;2023-06-22T19:25:38;29.40;88.70
2855;DHT22;1435;49.472;10.940;2023-06-22T19:30:46;29.30;89.70
2855;DHT22;1435;49.472;10.940;2023-06-22T19:35:49;29.20;90.50
2855;DHT22;1435;49.472;10.940;2023-06-22T19:40:53;29.20;91.30
2855;DHT22;1435;49.472;10.940;2023-06-22T19:45:55;29.20;92.60
2855;DHT22;1435;49.472;10.940;2023-06-22T19:51:02;29.00;93.50
2855;DHT22;1435;49.472;10.940;2023-06-22T19:56:06;28.90;94.10
2855;DHT22;1435;49.472;10.940;2023-06-22T20:01:08;28.70;94.60
2855;DHT22;1435;49.472;10.940;2023-06-22T20:06:11;28.60;95.70
2855;DHT22;1435;49.472;10.940;2023-06-22T20:11:23;28.40;96.50
2855;DHT22;1435;49.472;10.940;2023-06-22T20:16:26;28.10;97.20
2855;DHT22;1435;49.472;10.940;2023-06-22T20:21:28;28.00;97.20
2855;DHT22;1435;49.472;10.940;2023-06-22T20:26:38;27.90;97.60
2855;DHT22;1435;49.472;10.940;2023-06-22T20:31:40;27.90;98.50
2855;DHT22;1435;49.472;10.940;2023-06-22T20:36:42;27.90;99.90
2855;DHT22;1435;49.472;10.940;2023-06-22T20:41:45;27.70;99.90
2855;DHT22;1435;49.472;10.940;2023-06-22T20:46:46;27.70;99.90
2855;DHT22;1435;49.472;10.940;2023-06-22T20:51:48;27.60;99.90
2855;DHT22;1435;49.472;10.940;2023-06-22T20:56:52;27.50;99.90
2855;DHT22;1435;49.472;10.940;2023-06-22T21:01:54;27.40;99.90
2855;DHT22;1435;49.472;10.940;2023-06-22T21:06:56;27.20;99.90
2855;DHT22;1435;49.472;10.940;2023-06-22T21:11:59;27.00;99.90
2855;DHT22;1435;49.472;10.940;2023-06-22T21:17:01;26.90;99.90
2855;DHT22;1435;49.472;10.940;2023-06-22T21:22:03;26.70;99.90
2855;DHT22;1435;49.472;10.940;2023-06-22T21:27:07;26.50;99.90
2855;DHT22;1435;49.472;10.940;2023-06-22T21:32:09;26.30;99.90
2855;DHT22;1435;49.472;10.940;2023-06-22T21:37:10;26.10;99.90
2855;DHT22;1435;49.472;10.940;2023-06-22T21:42:13;26.00;99.90
2855;DHT22;1435;49.472;10.940;2023-06-22T21:47:15;25.90;99.90
2855;DHT22;1435;49.472;10.940;2023-06-22T21:52:17;25.80;99.90
2855;DHT22;1435;49.472;10.940;2023-06-22T21:57:20;25.70;99.90
2855;DHT22;1435;49.472;10.940;2023-06-22T22:02:26;25.60;99.90
2855;DHT22;1435;49.472;10.940;2023-06-22T22:07:28;25.50;99.90
2855;DHT22;1435;49.472;10.940;2023-06-22T22:12:32;25.40;99.90
2855;DHT22;1435;49.472;10.940;2023-06-22T22:17:35;25.30;99.90
2855;DHT22;1435;49.472;10.940;2023-06-22T22:22:37;25.20;99.90
2855;DHT22;1435;49.472;10.940;2023-06-22T22:27:40;25.20;99.90
2855;DHT22;1435;49.472;10.940;2023-06-22T22:32:42;25.10;99.90
2855;DHT22;1435;49.472;10.940;2023-06-22T22:37:45;25.00;99.90
2855;DHT22;1435;49.472;10.940;2023-06-22T22:42:48;25.00;99.90
2855;DHT22;1435;49.472;10.940;2023-06-22T22:47:49;24.90;99.90
2855;DHT22;1435;49.472;10.940;2023-06-22T22:52:51;24.80;99.90
2855;DHT22;1435;49.472;10.940;2023-06-22T22:57:54;24.80;99.90
2855;DHT22;1435;49.472;10.940;2023-06-22T23:02:56;24.70;99.90
2855;DHT22;1435;49.472;10.940;2023-06-22T23:07:58;24.60;99.90
2855;DHT22;1435;49.472;10.940;2023-06-22T23:13:02;24.60;99.90
2855;DHT22;1435;49.472;10.940;2023-06-22T23:18:04;24.50;99.90
2855;DHT22;1435;49.472;10.940;2023-06-22T23:23:09;24.50;99.90
2855;DHT22;1435;49.472;10.940;2023-06-22T23:28:12;24.40;99.90
2855;DHT22;1435;49.472;10.940;2023-06-22T23:33:13;24.40;99.90
2855;DHT22;1435;49.472;10.940;2023-06-22T23:38:15;24.30;99.90
2855;DHT22;1435;49.472;10.940;2023-06-22T23:43:19;24.20;99.90
2855;DHT22;1435;49.472;10.940;2023-06-22T23:48:21;24.20;99.90
2855;DHT22;1435;49.472;10.940;2023-06-22T23:53:22;24.20;99.90
2855;DHT22;1435;49.472;10.940;2023-06-22T23:58:25;24.10;99.90
